createdAt,value
2023-05-09T00:01:35.470Z,101367.34
2023-05-09T00:04:38.913Z,101375.06
2023-05-09T00:07:41.530Z,101383.66
2023-05-09T00:10:44.367Z,101377.91
2023-05-09T00:13:47.474Z,101373.09
2023-05-09T00:16:50.808Z,101371.47
2023-05-09T00:19:54.074Z,101375.78
2023-05-09T00:22:57.216Z,101375.94
2023-05-09T00:26:00.204Z,101377.28
2023-05-09T00:29:04.184Z,101349.53
2023-05-09T00:32:07.556Z,101367.88
2023-05-09T00:35:10.927Z,101360.81
2023-05-09T00:38:13.932Z,101317.94
2023-05-09T00:41:17.384Z,101356.16
2023-05-09T00:44:19.985Z,101348.38
2023-05-09T00:47:24.171Z,101318.66
2023-05-09T00:50:27.669Z,101352.41
2023-05-09T00:53:31.149Z,101360.38
2023-05-09T00:56:34.084Z,101360.91
2023-05-09T00:59:37.332Z,101356.06
2023-05-09T01:02:46.733Z,101358.50
2023-05-09T01:06:05.912Z,101353.16
2023-05-09T01:09:19.858Z,101359.56
2023-05-09T01:12:35.301Z,101356.75
2023-05-09T01:15:53.060Z,101356.75
2023-05-09T01:19:20.635Z,101355.94
2023-05-09T01:22:30.461Z,101366.22
2023-05-09T01:25:54.475Z,101355.19
2023-05-09T01:29:30.867Z,101351.72
2023-05-09T01:32:37.211Z,101348.31
2023-05-09T01:35:43.517Z,101343.84
2023-05-09T01:38:50.534Z,101334.16
2023-05-09T01:41:56.894Z,101335.06
2023-05-09T01:45:00.551Z,101338.66
2023-05-09T01:48:04.570Z,101336.84
2023-05-09T01:51:11.011Z,101334.78
2023-05-09T01:54:15.044Z,101332.28
2023-05-09T01:57:19.348Z,101331.66
2023-05-09T02:00:23.983Z,101327.03
2023-05-09T02:03:28.665Z,101337.28
2023-05-09T02:06:33.124Z,101333.62
2023-05-09T02:09:36.071Z,101332.97
2023-05-09T02:12:40.249Z,101331.78
2023-05-09T02:15:44.681Z,101331.44
2023-05-09T02:18:52.362Z,101327.44
2023-05-09T02:21:54.975Z,101321.34
2023-05-09T02:24:57.825Z,101318.37
2023-05-09T02:28:01.919Z,101320.00
2023-05-09T02:31:08.300Z,101318.78
2023-05-09T02:34:12.252Z,101319.25
2023-05-09T02:37:16.533Z,101314.87
2023-05-09T02:40:20.662Z,101310.28
2023-05-09T02:43:23.565Z,101308.69
2023-05-09T02:46:26.673Z,101312.78
2023-05-09T02:49:32.525Z,101316.28
2023-05-09T02:52:36.534Z,101308.13
2023-05-09T02:55:39.541Z,101312.97
2023-05-09T02:58:44.355Z,101308.31
2023-05-09T03:01:47.754Z,101315.47
2023-05-09T03:04:54.728Z,101313.78
2023-05-09T03:07:57.474Z,101311.09
2023-05-09T03:10:59.971Z,101302.63
2023-05-09T03:14:04.194Z,101304.94
2023-05-09T03:17:08.481Z,101302.25
2023-05-09T03:20:12.875Z,101301.81
2023-05-09T03:23:17.669Z,101300.12
2023-05-09T03:26:21.695Z,101303.78
2023-05-09T03:29:25.453Z,101309.62
2023-05-09T03:32:30.087Z,101311.84
2023-05-09T03:35:33.716Z,101305.56
2023-05-09T03:38:39.319Z,101305.84
2023-05-09T03:41:43.638Z,101313.53
2023-05-09T03:44:46.750Z,101320.91
2023-05-09T03:47:49.760Z,101317.16
2023-05-09T03:50:53.002Z,101325.22
2023-05-09T03:53:56.386Z,101315.63
2023-05-09T03:57:01.732Z,101324.06
2023-05-09T04:00:06.998Z,101325.41
2023-05-09T04:03:17.615Z,101293.38
2023-05-09T04:06:21.219Z,101300.53
2023-05-09T04:09:24.101Z,101320.34
2023-05-09T04:12:27.834Z,101328.06
2023-05-09T04:15:30.825Z,101322.31
2023-05-09T04:18:34.895Z,101314.06
2023-05-09T04:21:40.824Z,101323.97
2023-05-09T04:24:45.995Z,101330.44
2023-05-09T04:27:49.622Z,101319.13
2023-05-09T04:30:53.108Z,101313.75
2023-05-09T04:34:01.781Z,101316.25
2023-05-09T04:37:09.246Z,101310.75
2023-05-09T04:40:17.020Z,101310.56
2023-05-09T04:43:22.014Z,101304.97
2023-05-09T04:46:27.210Z,101323.19
2023-05-09T04:49:30.507Z,101320.75
2023-05-09T04:52:33.194Z,101316.84
2023-05-09T04:55:37.786Z,101322.44
2023-05-09T04:58:50.332Z,101314.06
2023-05-09T05:01:56.171Z,101318.78
2023-05-09T05:05:10.938Z,101315.13
2023-05-09T05:08:20.104Z,101317.41
2023-05-09T05:11:29.827Z,101315.88
2023-05-09T05:14:33.646Z,101321.19
2023-05-09T05:17:36.979Z,101318.81
2023-05-09T05:20:42.111Z,101318.13
2023-05-09T05:23:46.024Z,101321.41
2023-05-09T05:26:49.654Z,101316.47
2023-05-09T05:30:00.654Z,101332.34
2023-05-09T05:33:11.538Z,101325.78
2023-05-09T05:36:15.186Z,101319.91
2023-05-09T05:39:18.436Z,101327.28
2023-05-09T05:42:21.107Z,101317.34
2023-05-09T05:45:26.540Z,101319.16
2023-05-09T05:48:40.905Z,101311.19
2023-05-09T05:51:44.088Z,101313.44
2023-05-09T05:54:56.421Z,101318.31
2023-05-09T05:58:03.093Z,101317.75
2023-05-09T06:04:33.979Z,101315.69
2023-05-09T06:07:37.489Z,101307.75
2023-05-09T06:10:42.505Z,101313.44
2023-05-09T06:13:46.572Z,101316.38
2023-05-09T06:16:50.661Z,101313.00
2023-05-09T06:19:54.037Z,101307.34
2023-05-09T06:22:57.137Z,101308.00
2023-05-09T06:26:00.853Z,101316.66
2023-05-09T06:29:06.546Z,101305.34
2023-05-09T06:32:10.460Z,101310.56
2023-05-09T06:35:15.866Z,101305.06
2023-05-09T06:38:19.463Z,101302.50
2023-05-09T06:41:23.775Z,101298.16
2023-05-09T06:44:28.233Z,101295.50
2023-05-09T06:47:32.792Z,101300.97
2023-05-09T06:50:36.010Z,101301.81
2023-05-09T06:53:39.376Z,101298.28
2023-05-09T06:56:42.670Z,101299.28
2023-05-09T06:59:48.704Z,101288.69
2023-05-09T07:03:02.500Z,101291.37
2023-05-09T07:06:12.837Z,101291.50
2023-05-09T07:09:28.544Z,101282.97
2023-05-09T07:12:33.485Z,101266.56
2023-05-09T07:15:41.831Z,101271.59
2023-05-09T07:18:52.975Z,101273.87
2023-05-09T07:21:58.641Z,101276.44
2023-05-09T07:25:04.468Z,101270.06
2023-05-09T07:28:15.537Z,101265.91
2023-05-09T07:31:19.786Z,101250.53
2023-05-09T07:34:26.279Z,101257.25
2023-05-09T07:37:31.681Z,101264.66
2023-05-09T07:40:38.575Z,101248.38
2023-05-09T07:43:47.864Z,101247.69
2023-05-09T07:46:59.303Z,101249.72
2023-05-09T07:50:09.414Z,101241.59
2023-05-09T07:53:13.046Z,101241.28
2023-05-09T07:56:16.556Z,101235.97
2023-05-09T07:59:22.915Z,101236.41
2023-05-09T08:02:28.015Z,101239.28
2023-05-09T08:05:37.653Z,101223.03
2023-05-09T08:08:40.700Z,101224.03
2023-05-09T08:11:46.684Z,101226.81
2023-05-09T08:14:51.196Z,101213.09
2023-05-09T08:17:58.843Z,101212.25
2023-05-09T08:21:03.025Z,101208.50
2023-05-09T08:24:09.814Z,101202.19
2023-05-09T08:27:14.081Z,101209.97
2023-05-09T08:30:24.201Z,101199.97
2023-05-09T08:33:30.198Z,101198.41
2023-05-09T08:36:34.108Z,101187.97
2023-05-09T08:39:37.005Z,101206.00
2023-05-09T08:42:45.951Z,101198.38
2023-05-09T08:46:00.405Z,101207.47
2023-05-09T08:49:07.364Z,101199.34
2023-05-09T08:52:12.184Z,101203.59
2023-05-09T08:55:15.581Z,101193.97
2023-05-09T08:58:26.280Z,101194.53
2023-05-09T09:01:36.024Z,101184.69
2023-05-09T09:04:40.322Z,101196.75
2023-05-09T09:07:45.017Z,101188.19
2023-05-09T09:10:49.168Z,101181.97
2023-05-09T09:14:16.905Z,101187.19
2023-05-09T09:17:30.980Z,101195.50
2023-05-09T09:20:37.315Z,101192.75
2023-05-09T09:23:43.221Z,101175.09
2023-05-09T09:26:49.475Z,101168.75
2023-05-09T09:29:52.267Z,101175.28
2023-05-09T09:32:59.098Z,101178.00
2023-05-09T09:36:02.730Z,101162.69
2023-05-09T09:39:06.568Z,101135.16
2023-05-09T09:42:16.741Z,101178.97
2023-05-09T09:45:22.469Z,101160.59
2023-05-09T09:48:27.658Z,101174.69
2023-05-09T09:51:35.496Z,101171.25
2023-05-09T09:54:38.914Z,101158.53
2023-05-09T09:57:48.176Z,101149.44
2023-05-09T10:01:20.214Z,101159.06
2023-05-09T10:04:25.805Z,101164.25
2023-05-09T10:07:35.530Z,101145.97
2023-05-09T10:10:40.108Z,101131.72
2023-05-09T10:13:44.705Z,101155.44
2023-05-09T10:16:54.591Z,101143.16
2023-05-09T10:20:02.491Z,101136.16
2023-05-09T10:23:08.420Z,101133.66
2023-05-09T10:26:29.084Z,101136.72
2023-05-09T10:29:52.287Z,101127.59
2023-05-09T10:33:11.554Z,101124.56
2023-05-09T10:36:24.471Z,101133.25
2023-05-09T10:39:31.735Z,101119.13
2023-05-09T10:42:35.663Z,101119.00
2023-05-09T10:45:40.473Z,101119.56
2023-05-09T10:48:48.334Z,101116.75
2023-05-09T10:51:57.889Z,101116.91
2023-05-09T10:55:05.226Z,101129.81
2023-05-09T10:58:24.508Z,101125.47
2023-05-09T11:01:38.607Z,101125.19
2023-05-09T11:04:42.195Z,101113.94
2023-05-09T11:07:48.239Z,101117.50
2023-05-09T11:11:04.501Z,101117.63
2023-05-09T11:14:11.804Z,101130.09
2023-05-09T11:17:28.248Z,101120.06
2023-05-09T11:20:45.488Z,101113.47
2023-05-09T11:23:55.347Z,101112.31
2023-05-09T11:27:00.159Z,101108.66
2023-05-09T11:30:11.473Z,101112.97
2023-05-09T11:33:30.393Z,101097.66
2023-05-09T11:36:33.682Z,101103.25
2023-05-09T11:40:00.643Z,101095.22
2023-05-09T11:43:04.372Z,101087.50
2023-05-09T11:46:08.176Z,101088.69
2023-05-09T11:49:12.925Z,101084.94
2023-05-09T11:52:20.900Z,101083.56
2023-05-09T11:55:30.594Z,101086.78
2023-05-09T11:58:42.549Z,101070.34
2023-05-09T12:01:45.318Z,101071.16
2023-05-09T12:04:50.198Z,101065.84
2023-05-09T12:08:06.528Z,101064.88
2023-05-09T12:11:09.960Z,101049.66
2023-05-09T12:14:34.493Z,101054.78
2023-05-09T12:17:44.703Z,101043.37
2023-05-09T12:20:53.686Z,101047.97
2023-05-09T12:23:59.542Z,101045.62
2023-05-09T12:27:14.044Z,101044.34
2023-05-09T12:30:18.801Z,101036.13
2023-05-09T12:33:24.237Z,101029.78
2023-05-09T12:36:40.134Z,101031.62
2023-05-09T12:40:15.871Z,101037.13
2023-05-09T12:43:19.658Z,101031.13
2023-05-09T12:46:35.067Z,101029.75
2023-05-09T12:49:39.135Z,101022.91
2023-05-09T12:53:02.102Z,101019.06
2023-05-09T12:56:15.774Z,101018.34
2023-05-09T12:59:23.981Z,101006.94
2023-05-09T13:02:27.869Z,101004.78
2023-05-09T13:05:34.549Z,100997.53
2023-05-09T13:08:38.121Z,100995.56
2023-05-09T13:11:42.080Z,100999.72
2023-05-09T13:14:46.985Z,100993.97
2023-05-09T13:17:52.512Z,100997.09
2023-05-09T13:20:56.143Z,100993.44
2023-05-09T13:24:57.162Z,100986.19
2023-05-09T13:29:08.569Z,100976.50
2023-05-09T13:32:12.210Z,100988.41
2023-05-09T13:35:18.516Z,100983.16
2023-05-09T13:38:22.592Z,100974.88
2023-05-09T13:41:32.292Z,100972.06
2023-05-09T13:44:46.792Z,100973.72
2023-05-09T13:48:00.471Z,100971.09
2023-05-09T13:51:06.449Z,100964.16
2023-05-09T13:54:12.909Z,100952.19
2023-05-09T13:57:16.426Z,100956.16
2023-05-09T14:00:22.552Z,100953.28
2023-05-09T14:03:30.149Z,100945.22
2023-05-09T14:06:36.704Z,100942.47
2023-05-09T14:09:40.299Z,100938.69
2023-05-09T14:12:47.511Z,100933.34
2023-05-09T14:15:52.545Z,100929.31
2023-05-09T14:18:56.342Z,100939.66
2023-05-09T14:22:02.273Z,100931.69
2023-05-09T14:25:11.674Z,100933.06
2023-05-09T14:28:16.068Z,100924.94
2023-05-09T14:31:26.626Z,100924.38
2023-05-09T14:34:30.534Z,100891.03
2023-05-09T14:37:41.758Z,100908.84
2023-05-09T14:40:45.247Z,100907.97
2023-05-09T14:43:50.047Z,100911.16
2023-05-09T14:46:56.646Z,100909.41
2023-05-09T14:50:01.103Z,100905.88
2023-05-09T14:53:07.743Z,100903.94
2023-05-09T14:56:14.188Z,100904.94
2023-05-09T14:59:23.755Z,100903.12
2023-05-09T15:02:27.288Z,100902.88
2023-05-09T15:05:44.458Z,100904.56
2023-05-09T15:08:48.397Z,100879.81
2023-05-09T15:11:51.576Z,100898.97
2023-05-09T15:14:55.587Z,100906.03
2023-05-09T15:18:05.526Z,100895.63
2023-05-09T15:21:08.691Z,100894.53
2023-05-09T15:24:13.126Z,100887.25
2023-05-09T15:27:15.901Z,100887.19
2023-05-09T15:30:24.698Z,100886.31
2023-05-09T15:33:34.953Z,100877.47
2023-05-09T15:36:42.545Z,100874.81
2023-05-09T15:39:52.519Z,100861.53
2023-05-09T15:43:08.721Z,100873.00
2023-05-09T15:46:14.113Z,100872.91
2023-05-09T15:49:17.450Z,100868.81
2023-05-09T15:52:38.481Z,100867.50
2023-05-09T15:55:44.066Z,100861.41
2023-05-09T15:58:51.620Z,100842.03
2023-05-09T16:01:57.685Z,100864.91
2023-05-09T16:05:07.587Z,100861.41
2023-05-09T16:08:17.162Z,100855.19
2023-05-09T16:11:27.013Z,100850.63
2023-05-09T16:14:39.019Z,100856.59
2023-05-09T16:17:45.478Z,100859.03
2023-05-09T16:21:00.872Z,100854.50
2023-05-09T16:24:14.709Z,100852.69
2023-05-09T16:27:18.238Z,100851.63
2023-05-09T16:30:27.709Z,100848.97
2023-05-09T16:33:44.127Z,100851.44
2023-05-09T16:36:55.500Z,100841.56
2023-05-09T16:40:00.920Z,100841.56
2023-05-09T16:43:07.360Z,100843.22
2023-05-09T16:46:21.689Z,100837.84
2023-05-09T16:49:29.083Z,100825.47
2023-05-09T16:52:36.723Z,100831.56
2023-05-09T16:55:41.181Z,100834.16
2023-05-09T16:58:49.457Z,100825.34
2023-05-09T17:01:58.195Z,100828.75
2023-05-09T17:05:08.746Z,100827.81
2023-05-09T17:08:15.527Z,100837.50
2023-05-09T17:11:22.608Z,100826.97
2023-05-09T17:14:27.805Z,100825.16
2023-05-09T17:17:36.105Z,100823.28
2023-05-09T17:20:45.539Z,100834.59
2023-05-09T17:23:57.748Z,100831.03
2023-05-09T17:27:20.888Z,100826.50
2023-05-09T17:30:25.941Z,100824.66
2023-05-09T17:33:29.570Z,100824.59
2023-05-09T17:36:37.028Z,100823.59
2023-05-09T17:39:50.456Z,100812.84
2023-05-09T17:43:11.558Z,100826.78
2023-05-09T17:46:19.584Z,100821.47
2023-05-09T17:49:27.918Z,100818.56
2023-05-09T17:52:50.401Z,100822.84
2023-05-09T17:55:55.464Z,100792.63
2023-05-09T17:59:11.552Z,100827.84
2023-05-09T18:02:25.431Z,100826.69
2023-05-09T18:05:34.946Z,100820.22
2023-05-09T18:08:38.206Z,100819.09
2023-05-09T18:11:54.798Z,100829.44
2023-05-09T18:15:00.157Z,100828.47
2023-05-09T18:18:12.906Z,100824.75
2023-05-09T18:21:26.679Z,100832.44
2023-05-09T18:24:44.606Z,100826.09
2023-05-09T18:28:01.616Z,100822.47
2023-05-09T18:31:19.539Z,100836.22
2023-05-09T18:34:33.487Z,100835.12
2023-05-09T18:37:43.504Z,100834.88
2023-05-09T18:40:48.563Z,100832.09
2023-05-09T18:44:05.472Z,100838.91
2023-05-09T18:47:19.496Z,100848.44
2023-05-09T18:50:38.549Z,100842.25
2023-05-09T18:53:57.096Z,100850.84
2023-05-09T18:57:13.983Z,100848.97
2023-05-09T19:00:18.830Z,100854.16
2023-05-09T19:03:36.536Z,100851.56
2023-05-09T19:06:57.411Z,100852.31
2023-05-09T19:10:19.502Z,100855.62
2023-05-09T19:13:25.850Z,100851.91
2023-05-09T19:16:34.598Z,100856.19
2023-05-09T19:19:45.550Z,100855.16
2023-05-09T19:22:51.538Z,100852.44
2023-05-09T19:26:05.514Z,100861.06
2023-05-09T19:29:10.535Z,100848.72
2023-05-09T19:32:15.513Z,100855.69
2023-05-09T19:35:20.289Z,100853.94
2023-05-09T19:38:31.531Z,100857.41
2023-05-09T19:41:39.484Z,100849.66
2023-05-09T19:44:46.516Z,100850.37
2023-05-09T19:47:58.489Z,100851.13
2023-05-09T19:51:12.312Z,100850.22
2023-05-09T19:54:20.473Z,100846.66
2023-05-09T19:57:31.982Z,100848.19
2023-05-09T20:00:41.432Z,100854.19
2023-05-09T20:03:53.173Z,100842.66
2023-05-09T20:06:59.829Z,100843.47
2023-05-09T20:10:13.580Z,100844.19
2023-05-09T20:13:23.857Z,100843.06
2023-05-09T20:16:27.286Z,100837.59
2023-05-09T20:19:34.543Z,100836.56
2023-05-09T20:22:38.920Z,100838.97
2023-05-09T20:25:42.137Z,100839.78
2023-05-09T20:28:47.442Z,100832.59
2023-05-09T20:31:53.719Z,100836.00
2023-05-09T20:35:01.635Z,100834.19
2023-05-09T20:38:07.706Z,100829.78
2023-05-09T20:41:12.460Z,100829.84
2023-05-09T20:44:17.919Z,100830.59
2023-05-09T20:47:21.527Z,100829.59
2023-05-09T20:50:26.503Z,100819.97
2023-05-09T20:53:33.477Z,100818.88
2023-05-09T20:56:36.554Z,100819.53
2023-05-09T20:59:41.454Z,100818.56
2023-05-09T21:02:44.657Z,100822.81
2023-05-09T21:05:51.996Z,100823.47
2023-05-09T21:08:54.648Z,100806.81
2023-05-09T21:12:00.743Z,100814.41
2023-05-09T21:15:07.492Z,100816.91
2023-05-09T21:18:13.689Z,100814.34
2023-05-09T21:21:19.744Z,100808.94
2023-05-09T21:24:23.730Z,100809.66
2023-05-09T21:27:27.096Z,100809.56
2023-05-09T21:30:30.743Z,100810.37
2023-05-09T21:33:33.206Z,100810.13
2023-05-09T21:36:38.495Z,100804.69
2023-05-09T21:39:41.877Z,100810.53
2023-05-09T21:42:44.835Z,100809.78
2023-05-09T21:45:47.546Z,100806.25
2023-05-09T21:48:50.534Z,100803.72
2023-05-09T21:51:53.630Z,100812.50
2023-05-09T21:55:00.970Z,100805.47
2023-05-09T21:58:04.466Z,100801.19
2023-05-09T22:01:07.431Z,100803.72
2023-05-09T22:04:10.554Z,100799.41
2023-05-09T22:07:13.356Z,100806.44
2023-05-09T22:10:16.402Z,100804.59
2023-05-09T22:13:19.939Z,100807.25
2023-05-09T22:16:22.968Z,100801.28
2023-05-09T22:19:25.531Z,100805.59
2023-05-09T22:22:28.397Z,100798.72
2023-05-09T22:25:33.286Z,100798.06
2023-05-09T22:28:37.820Z,100801.62
2023-05-09T22:31:40.411Z,100801.62
2023-05-09T22:34:46.068Z,100804.09
2023-05-09T22:37:48.647Z,100810.16
2023-05-09T22:40:51.621Z,100803.13
2023-05-09T22:43:54.476Z,100805.69
2023-05-09T22:46:59.148Z,100809.03
2023-05-09T22:50:02.162Z,100800.06
2023-05-09T22:53:04.998Z,100799.94
2023-05-09T22:56:09.587Z,100800.69
2023-05-09T22:59:14.414Z,100803.25
2023-05-09T23:02:18.999Z,100805.72
2023-05-09T23:05:22.116Z,100801.16
2023-05-09T23:08:25.443Z,100794.84
2023-05-09T23:11:31.476Z,100800.84
2023-05-09T23:14:36.192Z,100801.84
2023-05-09T23:17:39.196Z,100801.00
2023-05-09T23:20:41.936Z,100798.59
2023-05-09T23:23:45.337Z,100798.94
2023-05-09T23:26:48.226Z,100802.53
2023-05-09T23:29:51.569Z,100796.28
2023-05-09T23:32:54.590Z,100801.56
2023-05-09T23:35:57.485Z,100794.62
2023-05-09T23:39:00.529Z,100788.53
2023-05-09T23:42:04.181Z,100791.00
2023-05-09T23:45:08.316Z,100792.63
2023-05-09T23:48:11.787Z,100782.75
2023-05-09T23:51:14.309Z,100787.84
2023-05-09T23:54:18.364Z,100785.19
2023-05-09T23:57:21.102Z,100779.84
